Time;durP1;ratioP1;P1;durP2;ratioP2;P2;SDS_P1;SDS_P2;PMS_P1;PMS_P2;Temp;Humidity;BMP_temperature;BMP_pressure;BME280_temperature;BME280_humidity;BME280_pressure;Samples;Min_cycle;Max_cycle;Signal;HPM_P1;HPM_P2
2023/08/03 00:02:12;;;;;;;1.97;0.77;;;;;;;;;;4933938;29;20785;-70
2023/08/03 00:04:39;;;;;;;1.80;0.80;;;;;;;;;;4931372;29;20554;-70
2023/08/03 00:07:07;;;;;;;1.73;0.67;;;;;;;;;;4933426;29;20866;-69
2023/08/03 00:09:34;;;;;;;3.10;0.77;;;;;;;;;;4932620;29;20498;-69
2023/08/03 00:12:01;;;;;;;2.20;1.00;;;;;;;;;;4932377;29;20456;-70
2023/08/03 00:14:29;;;;;;;1.90;0.80;;;;;;;;;;4934016;29;20811;-69
2023/08/03 00:16:57;;;;;;;1.80;0.80;;;;;;;;;;4931170;29;20542;-69
2023/08/03 00:19:24;;;;;;;4.93;0.90;;;;;;;;;;4927543;29;20455;-69
2023/08/03 00:21:51;;;;;;;2.17;0.90;;;;;;;;;;4932235;29;20506;-69
2023/08/03 00:24:18;;;;;;;2.07;0.60;;;;;;;;;;4933026;29;20463;-69
2023/08/03 00:26:45;;;;;;;6.17;1.10;;;;;;;;;;4933023;29;20487;-69
2023/08/03 00:29:12;;;;;;;1.50;0.53;;;;;;;;;;4934093;29;20574;-69
2023/08/03 00:31:41;;;;;;;3.80;1.30;;;;;;;;;;4935726;29;20947;-69
2023/08/03 00:34:08;;;;;;;1.70;0.70;;;;;;;;;;4933823;29;20973;-69
2023/08/03 00:36:35;;;;;;;4.53;0.77;;;;;;;;;;4932460;29;20574;-70
2023/08/03 00:39:02;;;;;;;1.80;0.63;;;;;;;;;;4937782;29;20455;-69
2023/08/03 00:41:30;;;;;;;8.80;2.70;;;;;;;;;;4939581;29;20459;-69
2023/08/03 00:43:57;;;;;;;2.03;0.80;;;;;;;;;;4934623;29;21013;-69
2023/08/03 00:46:24;;;;;;;2.60;0.77;;;;;;;;;;4934002;29;20547;-69
2023/08/03 00:48:53;;;;;;;2.27;0.90;;;;;;;;;;4934351;29;20490;-69
2023/08/03 00:51:22;;;;;;;2.23;0.80;;;;;;;;;;4929319;29;20469;-69
2023/08/03 00:53:49;;;;;;;1.80;1.00;;;;;;;;;;4932730;29;20444;-69
2023/08/03 00:56:17;;;;;;;3.20;1.10;;;;;;;;;;4931898;29;20555;-69
2023/08/03 00:58:44;;;;;;;1.97;0.70;;;;;;;;;;4930898;28;20463;-69
2023/08/03 01:01:11;;;;;;;1.60;0.60;;;;;;;;;;4933418;29;20436;-69
2023/08/03 01:03:39;;;;;;;2.07;0.93;;;;;;;;;;4933737;29;20471;-69
2023/08/03 01:06:07;;;;;;;2.80;1.10;;;;;;;;;;4931853;29;20511;-69
2023/08/03 01:08:34;;;;;;;1.90;0.83;;;;;;;;;;4932971;29;20522;-69
2023/08/03 01:11:02;;;;;;;1.80;0.90;;;;;;;;;;4934189;29;20468;-68
2023/08/03 01:13:29;;;;;;;1.57;0.67;;;;;;;;;;4932332;29;20467;-69
2023/08/03 01:15:57;;;;;;;3.10;0.97;;;;;;;;;;4937423;29;20482;-69
2023/08/03 01:18:24;;;;;;;2.27;0.70;;;;;;;;;;4936798;29;20524;-69
2023/08/03 01:20:52;;;;;;;2.23;0.73;;;;;;;;;;4930914;29;20563;-68
2023/08/03 01:23:21;;;;;;;2.90;1.13;;;;;;;;;;4932186;29;20962;-69
2023/08/03 01:25:48;;;;;;;2.43;0.80;;;;;;;;;;4933674;29;20978;-69
2023/08/03 01:28:15;;;;;;;2.43;1.37;;;;;;;;;;4932362;29;20918;-68
2023/08/03 01:30:42;;;;;;;1.70;0.70;;;;;;;;;;4937177;29;20531;-69
2023/08/03 01:33:09;;;;;;;3.23;0.60;;;;;;;;;;4936074;29;20440;-69
2023/08/03 01:35:36;;;;;;;1.90;0.70;;;;;;;;;;4933769;29;20542;-69
2023/08/03 01:38:03;;;;;;;2.03;0.93;;;;;;;;;;4935013;29;21033;-69
2023/08/03 01:40:32;;;;;;;3.33;0.87;;;;;;;;;;4933602;29;20466;-69
2023/08/03 01:42:59;;;;;;;5.10;1.00;;;;;;;;;;4935824;29;20901;-69
2023/08/03 01:45:26;;;;;;;3.70;1.40;;;;;;;;;;4931643;29;20510;-68
2023/08/03 01:47:53;;;;;;;2.03;0.80;;;;;;;;;;4936320;29;20465;-69
2023/08/03 01:50:20;;;;;;;2.60;1.30;;;;;;;;;;4937818;29;21004;-68
2023/08/03 01:52:48;;;;;;;1.90;0.70;;;;;;;;;;4934801;29;20908;-68
2023/08/03 01:55:16;;;;;;;1.70;0.60;;;;;;;;;;4931861;29;20468;-68
2023/08/03 01:57:45;;;;;;;2.20;0.80;;;;;;;;;;4928877;29;20484;-68
2023/08/03 02:00:13;;;;;;;3.20;0.97;;;;;;;;;;4931794;29;20533;-69
2023/08/03 02:02:40;;;;;;;1.93;1.10;;;;;;;;;;4935100;29;20436;-68
2023/08/03 02:05:07;;;;;;;2.63;1.00;;;;;;;;;;4936397;29;20526;-68
2023/08/03 02:07:45;;;;;;;1.97;0.70;;;;;;;;;;4937175;29;20985;-69
2023/08/03 02:10:12;;;;;;;1.60;0.60;;;;;;;;;;4931249;29;20570;-69
2023/08/03 02:12:39;;;;;;;2.37;0.67;;;;;;;;;;4933405;29;20810;-68
2023/08/03 02:15:08;;;;;;;1.60;0.77;;;;;;;;;;4934947;29;20597;-68
2023/08/03 02:17:35;;;;;;;1.40;0.50;;;;;;;;;;4932848;29;20490;-68
2023/08/03 02:20:03;;;;;;;1.50;0.60;;;;;;;;;;4933756;29;20468;-69
2023/08/03 02:22:30;;;;;;;1.90;0.50;;;;;;;;;;4932363;29;20563;-68
2023/08/03 02:24:57;;;;;;;1.87;0.67;;;;;;;;;;4934320;29;20530;-68
2023/08/03 02:27:25;;;;;;;2.93;0.70;;;;;;;;;;4930958;29;20582;-68
2023/08/03 02:29:52;;;;;;;3.40;0.60;;;;;;;;;;4930041;29;20475;-68
2023/08/03 02:32:21;;;;;;;1.50;0.60;;;;;;;;;;4937632;29;20452;-68
2023/08/03 02:34:48;;;;;;;1.53;0.67;;;;;;;;;;4933647;29;20502;-68
2023/08/03 02:37:16;;;;;;;1.70;0.67;;;;;;;;;;4935602;29;20549;-68
2023/08/03 02:39:43;;;;;;;3.53;0.90;;;;;;;;;;4933752;29;20459;-69
2023/08/03 02:42:10;;;;;;;2.67;0.80;;;;;;;;;;4935029;29;20477;-68
2023/08/03 02:44:37;;;;;;;1.50;0.63;;;;;;;;;;4936213;29;20495;-69
2023/08/03 02:47:05;;;;;;;2.07;0.80;;;;;;;;;;4932651;29;20522;-69
2023/08/03 02:49:33;;;;;;;1.93;0.90;;;;;;;;;;4933360;29;20572;-69
2023/08/03 02:52:00;;;;;;;3.03;0.83;;;;;;;;;;4934652;29;20529;-69
2023/08/03 02:54:28;;;;;;;1.50;0.80;;;;;;;;;;4936031;29;20532;-68
2023/08/03 02:56:55;;;;;;;4.07;0.80;;;;;;;;;;4937860;29;20506;-68
2023/08/03 02:59:22;;;;;;;4.23;0.77;;;;;;;;;;4934208;29;20495;-69
2023/08/03 03:01:49;;;;;;;2.43;0.70;;;;;;;;;;4936692;29;20859;-69
2023/08/03 03:04:16;;;;;;;1.90;1.00;;;;;;;;;;4935721;29;20440;-69
2023/08/03 03:06:45;;;;;;;1.40;0.50;;;;;;;;;;4934265;29;20819;-68
2023/08/03 03:09:12;;;;;;;2.57;0.70;;;;;;;;;;4932294;29;20476;-69
2023/08/03 03:11:39;;;;;;;3.10;1.13;;;;;;;;;;4935693;29;20540;-69
2023/08/03 03:14:06;;;;;;;2.03;0.70;;;;;;;;;;4932404;29;20463;-69
2023/08/03 03:16:33;;;;;;;2.10;0.80;;;;;;;;;;4933120;29;20904;-69
2023/08/03 03:19:00;;;;;;;1.90;0.67;;;;;;;;;;4931411;29;20559;-69
2023/08/03 03:21:28;;;;;;;3.47;1.00;;;;;;;;;;4930318;29;20495;-69
2023/08/03 03:23:56;;;;;;;1.40;0.53;;;;;;;;;;4933312;29;20952;-69
2023/08/03 03:26:23;;;;;;;3.30;1.33;;;;;;;;;;4934451;29;20931;-68
2023/08/03 03:28:50;;;;;;;2.80;1.20;;;;;;;;;;4932166;29;20470;-69
2023/08/03 03:31:17;;;;;;;2.60;0.73;;;;;;;;;;4929674;29;20488;-69
2023/08/03 03:33:45;;;;;;;1.80;0.73;;;;;;;;;;4929553;29;20455;-69
2023/08/03 03:36:12;;;;;;;2.53;1.43;;;;;;;;;;4934533;29;20883;-69
2023/08/03 03:38:39;;;;;;;1.50;0.63;;;;;;;;;;4932964;29;20951;-69
2023/08/03 03:41:08;;;;;;;2.10;0.73;;;;;;;;;;4936987;29;20432;-69
2023/08/03 03:43:35;;;;;;;3.13;0.60;;;;;;;;;;4935131;29;20554;-69
2023/08/03 03:46:03;;;;;;;2.50;0.83;;;;;;;;;;4931867;29;20546;-69
2023/08/03 03:48:30;;;;;;;1.67;0.60;;;;;;;;;;4930105;29;20469;-69
2023/08/03 03:50:57;;;;;;;2.10;0.83;;;;;;;;;;4933280;29;21148;-69
2023/08/03 03:53:24;;;;;;;3.53;0.87;;;;;;;;;;4934993;29;20531;-69
2023/08/03 03:55:51;;;;;;;2.07;0.60;;;;;;;;;;4933351;29;20570;-69
2023/08/03 03:58:20;;;;;;;3.33;0.77;;;;;;;;;;4932107;29;20466;-69
2023/08/03 04:00:47;;;;;;;1.47;0.53;;;;;;;;;;4931191;29;20459;-69
2023/08/03 04:03:14;;;;;;;2.07;0.97;;;;;;;;;;4933187;29;20465;-69
2023/08/03 04:05:41;;;;;;;1.40;0.60;;;;;;;;;;4932516;29;20853;-69
2023/08/03 04:08:09;;;;;;;2.33;0.90;;;;;;;;;;4931382;29;20463;-69
2023/08/03 04:10:37;;;;;;;5.20;0.80;;;;;;;;;;4931582;29;20566;-69
2023/08/03 04:13:04;;;;;;;3.20;0.93;;;;;;;;;;4933155;29;20464;-69
2023/08/03 04:15:32;;;;;;;2.57;0.73;;;;;;;;;;4930924;29;20555;-69
2023/08/03 04:17:59;;;;;;;1.70;0.70;;;;;;;;;;4932234;29;20558;-68
2023/08/03 04:20:26;;;;;;;1.33;0.47;;;;;;;;;;4931760;29;20474;-68
2023/08/03 04:22:54;;;;;;;1.40;0.50;;;;;;;;;;4932635;29;20459;-69
2023/08/03 04:25:21;;;;;;;4.30;0.80;;;;;;;;;;4931990;29;21044;-69
2023/08/03 04:27:48;;;;;;;1.40;0.50;;;;;;;;;;4930716;29;20508;-69
2023/08/03 04:30:15;;;;;;;1.90;0.60;;;;;;;;;;4932022;29;20570;-69
2023/08/03 04:32:44;;;;;;;5.47;0.90;;;;;;;;;;4932709;29;20455;-68
2023/08/03 04:35:11;;;;;;;1.70;0.70;;;;;;;;;;4928522;29;20463;-68
2023/08/03 04:37:38;;;;;;;1.47;0.60;;;;;;;;;;4931670;29;20484;-68
2023/08/03 04:40:06;;;;;;;2.23;0.97;;;;;;;;;;4931049;29;20487;-69
2023/08/03 04:42:33;;;;;;;1.90;0.73;;;;;;;;;;4934653;29;20490;-69
2023/08/03 04:45:00;;;;;;;3.00;0.53;;;;;;;;;;4942723;29;20456;-70
2023/08/03 04:47:27;;;;;;;1.80;0.80;;;;;;;;;;4945844;29;20558;-70
2023/08/03 04:49:56;;;;;;;1.40;0.57;;;;;;;;;;4945565;29;20555;-70
2023/08/03 04:52:23;;;;;;;2.00;1.10;;;;;;;;;;5639249;23;20471;-69
2023/08/03 04:57:26;;;;;;;1.50;0.60;;;;;;;;;;5673102;23;21910;-70
2023/08/03 04:59:54;;;;;;;1.53;0.60;;;;;;;;;;5531949;23;20813;-68
2023/08/03 05:04:58;;;;;;;1.30;0.50;;;;;;;;;;5344739;23;20526;-69
2023/08/03 05:07:25;;;;;;;2.23;0.83;;;;;;;;;;4952037;29;20494;-69
2023/08/03 05:09:53;;;;;;;1.30;0.53;;;;;;;;;;4934181;29;20566;-70
2023/08/03 05:12:20;;;;;;;1.63;0.50;;;;;;;;;;4936556;29;20825;-69
2023/08/03 05:14:47;;;;;;;1.50;0.50;;;;;;;;;;4934329;29;20828;-68
2023/08/03 05:17:15;;;;;;;1.80;0.50;;;;;;;;;;4936262;29;20479;-69
2023/08/03 05:19:42;;;;;;;1.60;0.80;;;;;;;;;;4932867;29;20460;-64
2023/08/03 05:22:10;;;;;;;1.40;0.50;;;;;;;;;;4934401;29;21030;-63
2023/08/03 05:24:38;;;;;;;1.40;0.50;;;;;;;;;;4934215;29;20471;-63
2023/08/03 05:27:05;;;;;;;2.10;0.83;;;;;;;;;;4934269;29;20483;-63
2023/08/03 05:29:32;;;;;;;1.70;0.60;;;;;;;;;;4935922;29;20467;-63
2023/08/03 05:31:59;;;;;;;1.70;0.50;;;;;;;;;;4933505;29;20482;-63
2023/08/03 05:34:27;;;;;;;1.90;0.70;;;;;;;;;;4933769;29;20930;-63
2023/08/03 05:36:54;;;;;;;3.03;0.80;;;;;;;;;;4931618;29;20574;-63
2023/08/03 05:39:26;;;;;;;1.40;0.60;;;;;;;;;;4934145;29;20538;-63
2023/08/03 05:41:53;;;;;;;1.40;0.50;;;;;;;;;;4938550;29;20435;-63
2023/08/03 05:44:20;;;;;;;1.60;0.50;;;;;;;;;;4932914;29;20519;-63
2023/08/03 05:46:47;;;;;;;1.50;0.63;;;;;;;;;;4935639;29;20471;-62
2023/08/03 05:49:15;;;;;;;1.50;0.60;;;;;;;;;;4935577;29;20442;-63
2023/08/03 05:51:42;;;;;;;1.53;0.60;;;;;;;;;;4933105;29;20475;-63
2023/08/03 05:54:14;;;;;;;1.50;0.50;;;;;;;;;;4932525;29;20550;-63
2023/08/03 05:56:43;;;;;;;2.27;0.60;;;;;;;;;;4935326;29;20887;-64
2023/08/03 05:59:15;;;;;;;1.30;0.40;;;;;;;;;;4933151;29;20882;-63
2023/08/03 06:01:43;;;;;;;1.30;0.40;;;;;;;;;;4930885;29;20455;-63
2023/08/03 06:04:11;;;;;;;1.93;0.80;;;;;;;;;;4935886;29;20514;-63
2023/08/03 06:06:38;;;;;;;1.30;0.50;;;;;;;;;;4934634;29;20480;-64
2023/08/03 06:09:06;;;;;;;1.40;0.50;;;;;;;;;;4933873;29;20494;-63
2023/08/03 06:11:33;;;;;;;4.20;0.60;;;;;;;;;;4933223;29;20566;-63
2023/08/03 06:14:01;;;;;;;1.60;0.60;;;;;;;;;;4935259;29;20469;-63
2023/08/03 06:16:29;;;;;;;1.70;0.50;;;;;;;;;;4932658;29;20566;-63
2023/08/03 06:18:58;;;;;;;6.37;0.77;;;;;;;;;;4931598;29;20460;-63
2023/08/03 06:21:26;;;;;;;2.73;0.80;;;;;;;;;;4930066;29;20452;-63
2023/08/03 06:23:54;;;;;;;1.50;0.50;;;;;;;;;;4934859;29;20464;-63
2023/08/03 06:26:21;;;;;;;2.23;0.77;;;;;;;;;;4930500;29;20489;-62
2023/08/03 06:28:50;;;;;;;5.20;0.67;;;;;;;;;;4932790;29;20541;-63
2023/08/03 06:31:19;;;;;;;1.50;0.57;;;;;;;;;;4929570;29;20471;-62
2023/08/03 06:33:47;;;;;;;3.10;0.70;;;;;;;;;;4934490;29;20865;-62
2023/08/03 06:36:20;;;;;;;2.27;0.50;;;;;;;;;;4934307;29;20511;-62
2023/08/03 06:38:47;;;;;;;1.50;0.50;;;;;;;;;;4934266;29;20899;-63
2023/08/03 06:41:14;;;;;;;2.83;0.60;;;;;;;;;;4934102;29;20535;-63
2023/08/03 06:43:41;;;;;;;2.10;0.60;;;;;;;;;;4935644;29;20444;-63
2023/08/03 06:46:09;;;;;;;1.70;0.50;;;;;;;;;;4932969;29;20480;-63
2023/08/03 06:48:38;;;;;;;1.40;0.50;;;;;;;;;;4932889;29;20466;-63
2023/08/03 06:51:05;;;;;;;2.20;0.70;;;;;;;;;;4931330;29;20495;-62
2023/08/03 06:53:33;;;;;;;1.70;0.60;;;;;;;;;;4931424;29;20460;-62
2023/08/03 06:56:00;;;;;;;3.97;0.60;;;;;;;;;;4936620;29;20507;-63
2023/08/03 06:58:27;;;;;;;2.57;0.70;;;;;;;;;;4928618;29;20503;-62
2023/08/03 07:00:54;;;;;;;2.30;0.90;;;;;;;;;;4933332;29;20572;-62
2023/08/03 07:03:22;;;;;;;1.40;0.50;;;;;;;;;;4934637;29;20472;-62
2023/08/03 07:05:50;;;;;;;1.30;0.50;;;;;;;;;;4935149;29;20518;-62
2023/08/03 07:08:17;;;;;;;2.17;0.70;;;;;;;;;;4934579;29;20498;-63
2023/08/03 07:10:44;;;;;;;2.20;0.80;;;;;;;;;;4928735;29;21047;-63
2023/08/03 07:13:13;;;;;;;1.90;0.80;;;;;;;;;;4932334;29;20933;-62
2023/08/03 07:15:40;;;;;;;1.60;0.50;;;;;;;;;;4931795;29;20537;-63
2023/08/03 07:18:09;;;;;;;1.30;0.40;;;;;;;;;;4935271;29;20630;-62
2023/08/03 07:20:36;;;;;;;1.20;0.50;;;;;;;;;;4931388;29;20456;-63
2023/08/03 07:23:07;;;;;;;1.60;0.50;;;;;;;;;;4928190;29;20523;-63
2023/08/03 07:25:34;;;;;;;1.83;0.80;;;;;;;;;;4935573;29;20455;-63
2023/08/03 07:28:01;;;;;;;1.40;0.70;;;;;;;;;;4930085;29;20945;-63
2023/08/03 07:30:28;;;;;;;2.00;0.80;;;;;;;;;;4933826;29;20542;-63
2023/08/03 07:32:57;;;;;;;2.27;0.73;;;;;;;;;;4930645;29;20865;-63
2023/08/03 07:35:24;;;;;;;2.80;0.70;;;;;;;;;;4931367;29;20498;-63
2023/08/03 07:37:51;;;;;;;1.53;0.60;;;;;;;;;;4926331;29;21017;-63
2023/08/03 07:40:20;;;;;;;2.13;0.60;;;;;;;;;;4933224;29;20470;-63
2023/08/03 07:42:47;;;;;;;1.87;0.80;;;;;;;;;;4930446;29;20460;-63
2023/08/03 07:45:14;;;;;;;2.60;0.70;;;;;;;;;;4930399;29;20482;-63
2023/08/03 07:47:41;;;;;;;1.60;0.60;;;;;;;;;;4931607;29;21016;-65
2023/08/03 07:50:09;;;;;;;1.40;0.60;;;;;;;;;;4932780;29;20546;-64
2023/08/03 07:52:36;;;;;;;3.83;0.60;;;;;;;;;;4932871;29;20853;-64
2023/08/03 07:55:03;;;;;;;1.50;0.70;;;;;;;;;;4928344;29;20456;-63
2023/08/03 07:57:33;;;;;;;2.07;0.97;;;;;;;;;;4934023;29;20523;-63
2023/08/03 08:00:00;;;;;;;1.50;0.60;;;;;;;;;;4932848;29;20973;-63
2023/08/03 08:02:27;;;;;;;2.07;0.70;;;;;;;;;;4930795;29;20986;-63
2023/08/03 08:04:55;;;;;;;1.43;0.70;;;;;;;;;;4933468;29;20463;-63
2023/08/03 08:07:22;;;;;;;1.70;0.70;;;;;;;;;;4930473;29;20539;-62
2023/08/03 08:09:49;;;;;;;1.67;0.80;;;;;;;;;;4927814;29;20468;-63
2023/08/03 08:12:16;;;;;;;2.17;0.70;;;;;;;;;;4932095;29;20914;-62
2023/08/03 08:14:45;;;;;;;1.40;0.60;;;;;;;;;;4933234;29;20726;-63
2023/08/03 08:17:12;;;;;;;1.30;0.50;;;;;;;;;;4933043;29;20598;-63
2023/08/03 08:19:39;;;;;;;1.70;0.73;;;;;;;;;;4934248;29;20452;-63
2023/08/03 08:22:08;;;;;;;1.30;0.50;;;;;;;;;;4935967;29;20477;-63
2023/08/03 08:24:36;;;;;;;1.30;0.50;;;;;;;;;;4930493;29;20467;-63
2023/08/03 08:27:03;;;;;;;1.40;0.60;;;;;;;;;;4933969;29;20470;-63
2023/08/03 08:29:31;;;;;;;2.23;0.70;;;;;;;;;;4933629;29;20444;-64
2023/08/03 08:31:59;;;;;;;1.60;0.63;;;;;;;;;;4932208;29;20998;-62
2023/08/03 08:34:26;;;;;;;2.40;0.50;;;;;;;;;;4932206;29;20459;-62
2023/08/03 08:36:55;;;;;;;4.00;0.87;;;;;;;;;;4934040;29;20555;-63
2023/08/03 08:39:22;;;;;;;4.47;1.07;;;;;;;;;;4929339;29;20460;-62
2023/08/03 08:41:49;;;;;;;1.40;0.50;;;;;;;;;;4928820;29;20518;-62
2023/08/03 08:44:17;;;;;;;1.50;0.57;;;;;;;;;;4932514;29;20491;-63
2023/08/03 08:46:44;;;;;;;1.60;0.60;;;;;;;;;;4928171;29;21925;-62
2023/08/03 08:49:13;;;;;;;1.80;0.50;;;;;;;;;;4932301;29;20518;-62
2023/08/03 08:51:41;;;;;;;1.70;0.60;;;;;;;;;;4926973;29;20574;-63
2023/08/03 08:54:09;;;;;;;1.30;0.40;;;;;;;;;;4931502;29;20468;-62
2023/08/03 08:56:36;;;;;;;1.50;0.60;;;;;;;;;;4932289;29;20484;-63
2023/08/03 08:59:03;;;;;;;1.20;0.50;;;;;;;;;;4935927;29;20443;-62
2023/08/03 09:01:45;;;;;;;1.20;0.50;;;;;;;;;;4932662;29;20479;-62
2023/08/03 09:04:14;;;;;;;1.40;0.57;;;;;;;;;;4930854;29;20526;-63
2023/08/03 09:06:44;;;;;;;4.07;1.13;;;;;;;;;;4931448;29;20476;-62
2023/08/03 09:09:11;;;;;;;1.50;0.70;;;;;;;;;;4933201;29;20471;-64
2023/08/03 09:11:38;;;;;;;1.83;1.00;;;;;;;;;;4930555;29;20487;-64
2023/08/03 09:14:06;;;;;;;1.20;0.50;;;;;;;;;;4931446;29;20471;-62
2023/08/03 09:16:34;;;;;;;1.20;0.50;;;;;;;;;;4933203;29;20479;-63
2023/08/03 09:19:01;;;;;;;1.30;0.50;;;;;;;;;;4933287;29;20456;-64
2023/08/03 09:21:29;;;;;;;1.40;0.57;;;;;;;;;;4932184;29;20491;-62
2023/08/03 09:23:59;;;;;;;2.10;0.70;;;;;;;;;;4933572;29;20492;-62
2023/08/03 09:26:27;;;;;;;1.20;0.43;;;;;;;;;;4928837;29;20470;-62
2023/08/03 09:28:54;;;;;;;1.20;0.50;;;;;;;;;;4930724;29;20444;-62
2023/08/03 09:31:23;;;;;;;2.17;0.60;;;;;;;;;;4933165;29;20570;-62
2023/08/03 09:33:56;;;;;;;1.20;0.40;;;;;;;;;;4932148;29;21041;-63
2023/08/03 09:36:23;;;;;;;1.20;0.50;;;;;;;;;;4935297;29;20495;-63
2023/08/03 09:38:52;;;;;;;1.20;0.60;;;;;;;;;;4934189;29;20931;-64
2023/08/03 09:41:34;;;;;;;1.50;0.70;;;;;;;;;;4931697;29;20912;-63
2023/08/03 09:44:03;;;;;;;1.40;0.60;;;;;;;;;;4933072;29;20981;-63
2023/08/03 09:46:30;;;;;;;2.40;0.60;;;;;;;;;;4936186;29;20480;-63
2023/08/03 09:48:57;;;;;;;1.60;0.50;;;;;;;;;;4940142;29;20466;-63
2023/08/03 09:51:26;;;;;;;7.20;2.77;;;;;;;;;;4933559;29;20613;-63
2023/08/03 09:53:57;;;;;;;1.70;0.80;;;;;;;;;;4933802;29;20491;-63
2023/08/03 09:56:25;;;;;;;1.20;0.50;;;;;;;;;;4937484;29;20524;-63
2023/08/03 09:58:54;;;;;;;4.97;0.93;;;;;;;;;;4935641;29;20499;-63
2023/08/03 10:01:24;;;;;;;1.30;0.60;;;;;;;;;;4934100;29;20464;-63
2023/08/03 10:03:53;;;;;;;2.40;0.60;;;;;;;;;;4934487;29;20455;-64
2023/08/03 10:06:21;;;;;;;1.63;0.83;;;;;;;;;;4935190;29;20491;-63
2023/08/03 10:08:49;;;;;;;2.87;0.70;;;;;;;;;;4936057;29;20550;-63
2023/08/03 10:11:19;;;;;;;1.23;0.43;;;;;;;;;;4933848;29;20511;-63
2023/08/03 10:13:47;;;;;;;1.40;0.50;;;;;;;;;;4936820;29;20527;-63
2023/08/03 10:16:15;;;;;;;1.40;0.50;;;;;;;;;;4933083;29;20464;-63
2023/08/03 10:18:43;;;;;;;1.20;0.40;;;;;;;;;;4934153;29;20457;-63
2023/08/03 10:21:10;;;;;;;1.30;0.50;;;;;;;;;;4935144;29;20527;-64
2023/08/03 10:23:38;;;;;;;1.60;1.07;;;;;;;;;;4935781;29;20495;-63
2023/08/03 10:26:07;;;;;;;2.10;1.20;;;;;;;;;;4939433;29;20982;-63
2023/08/03 10:28:48;;;;;;;1.67;0.70;;;;;;;;;;4936142;29;20474;-64
2023/08/03 10:31:15;;;;;;;1.33;0.60;;;;;;;;;;4939068;29;21142;-63
2023/08/03 10:34:05;;;;;;;2.33;0.60;;;;;;;;;;4938553;29;20527;-63
2023/08/03 10:36:38;;;;;;;2.03;0.50;;;;;;;;;;4937723;29;21010;-63
2023/08/03 10:39:06;;;;;;;1.30;0.50;;;;;;;;;;4951796;29;20479;-63
2023/08/03 10:41:37;;;;;;;1.20;0.40;;;;;;;;;;4954324;29;20491;-62
2023/08/03 10:44:23;;;;;;;7.90;0.63;;;;;;;;;;4950793;29;20451;-63
2023/08/03 10:46:52;;;;;;;2.70;0.70;;;;;;;;;;4954157;29;20463;-62
2023/08/03 10:49:38;;;;;;;1.20;0.50;;;;;;;;;;4953186;29;20889;-62
2023/08/03 10:52:21;;;;;;;2.27;0.60;;;;;;;;;;4952388;29;20503;-63
2023/08/03 10:54:48;;;;;;;1.30;0.50;;;;;;;;;;4946366;29;20491;-63
2023/08/03 10:57:16;;;;;;;1.53;0.60;;;;;;;;;;4934139;29;20593;-64
2023/08/03 10:59:44;;;;;;;1.30;0.50;;;;;;;;;;4935225;29;20490;-63
2023/08/03 11:02:14;;;;;;;1.60;0.83;;;;;;;;;;4936424;29;20514;-64
2023/08/03 11:04:42;;;;;;;1.20;0.50;;;;;;;;;;4934289;29;20475;-63
2023/08/03 11:07:10;;;;;;;1.30;0.50;;;;;;;;;;4937040;29;20514;-64
2023/08/03 11:09:37;;;;;;;1.50;0.50;;;;;;;;;;4933944;29;20547;-63
2023/08/03 11:12:06;;;;;;;1.77;0.60;;;;;;;;;;4934654;29;20579;-63
2023/08/03 11:14:33;;;;;;;2.17;0.50;;;;;;;;;;4933264;29;20460;-64
2023/08/03 11:17:01;;;;;;;1.60;0.53;;;;;;;;;;4933203;29;20486;-65
2023/08/03 11:19:32;;;;;;;1.20;0.40;;;;;;;;;;4933801;29;20550;-64
2023/08/03 11:22:00;;;;;;;3.47;1.13;;;;;;;;;;4935149;29;20982;-63
2023/08/03 11:24:30;;;;;;;1.40;0.50;;;;;;;;;;4933510;29;20471;-64
2023/08/03 11:26:58;;;;;;;1.20;0.40;;;;;;;;;;4934372;29;20475;-64
2023/08/03 11:29:25;;;;;;;1.20;0.40;;;;;;;;;;4934292;29;20444;-63
2023/08/03 11:31:52;;;;;;;1.40;0.50;;;;;;;;;;4934781;29;21063;-62
2023/08/03 11:34:20;;;;;;;1.40;0.50;;;;;;;;;;4932768;29;20567;-63
2023/08/03 11:36:52;;;;;;;1.57;0.50;;;;;;;;;;4934428;29;20491;-63
2023/08/03 11:39:19;;;;;;;1.40;0.60;;;;;;;;;;4934798;29;20510;-63
2023/08/03 11:41:47;;;;;;;1.80;0.50;;;;;;;;;;4933845;29;20458;-63
2023/08/03 11:44:15;;;;;;;1.20;0.50;;;;;;;;;;4934560;29;20527;-63
2023/08/03 11:46:42;;;;;;;2.40;0.50;;;;;;;;;;4932678;29;20570;-63
2023/08/03 11:49:13;;;;;;;1.47;0.50;;;;;;;;;;4931267;29;20471;-63
2023/08/03 11:51:41;;;;;;;1.30;0.47;;;;;;;;;;4929913;29;20477;-63
2023/08/03 11:54:10;;;;;;;1.20;0.50;;;;;;;;;;4931686;29;20455;-64
2023/08/03 11:56:38;;;;;;;2.90;0.50;;;;;;;;;;4934678;29;20478;-64
2023/08/03 11:59:04;;;;;;;1.20;0.50;;;;;;;;;;4934315;29;20459;-64
2023/08/03 12:01:32;;;;;;;1.30;0.60;;;;;;;;;;4934300;29;20435;-64
2023/08/03 12:04:06;;;;;;;1.57;0.70;;;;;;;;;;4933288;29;20545;-64
2023/08/03 12:06:46;;;;;;;1.63;0.67;;;;;;;;;;4932223;29;20497;-64
2023/08/03 12:09:19;;;;;;;1.70;0.67;;;;;;;;;;4929362;29;20467;-64
2023/08/03 12:11:48;;;;;;;2.03;0.93;;;;;;;;;;4928150;29;20487;-64
2023/08/03 12:14:15;;;;;;;1.20;0.53;;;;;;;;;;4935731;29;20554;-64
2023/08/03 12:16:42;;;;;;;1.33;0.57;;;;;;;;;;4931787;29;20542;-63
2023/08/03 12:19:09;;;;;;;1.40;0.50;;;;;;;;;;4935725;29;20464;-62
2023/08/03 12:24:16;;;;;;;1.20;0.40;;;;;;;;;;5399150;23;20574;-66
2023/08/03 12:26:44;;;;;;;1.40;0.63;;;;;;;;;;4923440;29;20480;-67
2023/08/03 12:29:11;;;;;;;1.73;0.80;;;;;;;;;;4914814;29;20495;-67
2023/08/03 12:31:39;;;;;;;1.23;0.47;;;;;;;;;;4913180;29;20938;-68
2023/08/03 12:34:06;;;;;;;3.77;1.10;;;;;;;;;;4915410;29;20432;-68
2023/08/03 12:36:34;;;;;;;2.30;0.50;;;;;;;;;;4952160;23;20508;-69
2023/08/03 12:39:01;;;;;;;1.47;0.60;;;;;;;;;;4932006;29;20439;-70
2023/08/03 12:44:05;;;;;;;2.20;0.80;;;;;;;;;;4785159;26;20822;-68
2023/08/03 12:46:32;;;;;;;1.30;0.60;;;;;;;;;;4916197;29;20468;-68
2023/08/03 12:49:00;;;;;;;1.60;0.60;;;;;;;;;;4915469;29;20968;-68
2023/08/03 12:51:28;;;;;;;1.63;0.50;;;;;;;;;;4915041;29;20887;-68
2023/08/03 12:53:55;;;;;;;1.30;0.50;;;;;;;;;;4913984;29;20587;-68
2023/08/03 12:56:22;;;;;;;1.20;0.50;;;;;;;;;;4916478;29;20496;-68
2023/08/03 12:58:49;;;;;;;1.30;0.67;;;;;;;;;;4915865;29;20452;-67
2023/08/03 13:01:18;;;;;;;1.20;0.40;;;;;;;;;;4916130;29;20831;-68
2023/08/03 13:03:45;;;;;;;1.67;0.70;;;;;;;;;;4912830;29;20449;-68
2023/08/03 13:06:12;;;;;;;1.67;0.60;;;;;;;;;;4913699;29;20851;-68
2023/08/03 13:08:40;;;;;;;2.33;0.80;;;;;;;;;;4916976;29;20932;-68
2023/08/03 13:11:07;;;;;;;2.43;1.27;;;;;;;;;;4915489;29;20461;-67
2023/08/03 13:13:34;;;;;;;1.83;0.77;;;;;;;;;;4915834;29;20469;-67
2023/08/03 13:16:01;;;;;;;1.30;0.60;;;;;;;;;;4914629;29;20488;-67
2023/08/03 13:18:30;;;;;;;1.77;0.70;;;;;;;;;;4913347;29;20868;-67
2023/08/03 13:20:58;;;;;;;2.33;0.80;;;;;;;;;;4913842;29;20850;-69
2023/08/03 13:23:25;;;;;;;1.40;0.70;;;;;;;;;;4912294;29;20998;-68
2023/08/03 13:25:52;;;;;;;1.40;0.60;;;;;;;;;;4917619;29;20854;-68
2023/08/03 13:28:19;;;;;;;1.77;0.50;;;;;;;;;;4917690;29;20826;-68
2023/08/03 13:30:46;;;;;;;2.80;0.80;;;;;;;;;;4917468;29;20460;-69
2023/08/03 13:33:13;;;;;;;4.40;0.80;;;;;;;;;;4918195;29;20480;-68
2023/08/03 13:35:42;;;;;;;1.60;0.70;;;;;;;;;;4916750;29;20490;-68
2023/08/03 13:38:09;;;;;;;1.67;0.60;;;;;;;;;;4913054;29;20475;-68
2023/08/03 13:40:37;;;;;;;1.20;0.50;;;;;;;;;;4918853;29;20447;-68
2023/08/03 13:43:04;;;;;;;1.30;0.60;;;;;;;;;;4915368;29;20523;-69
2023/08/03 13:45:31;;;;;;;1.40;0.60;;;;;;;;;;4920661;29;20445;-68
2023/08/03 13:47:59;;;;;;;2.43;0.67;;;;;;;;;;4918460;29;20441;-68
2023/08/03 13:50:26;;;;;;;1.63;0.67;;;;;;;;;;4917014;29;20464;-69
2023/08/03 13:52:54;;;;;;;1.60;0.50;;;;;;;;;;4918959;29;20867;-68
2023/08/03 13:55:21;;;;;;;1.60;0.57;;;;;;;;;;4919215;29;20448;-68
2023/08/03 13:57:48;;;;;;;1.30;0.57;;;;;;;;;;4915615;29;20467;-68
2023/08/03 14:00:16;;;;;;;1.50;0.60;;;;;;;;;;4918181;29;20455;-70
2023/08/03 14:02:44;;;;;;;1.83;0.57;;;;;;;;;;4919175;29;20688;-69
2023/08/03 14:05:11;;;;;;;1.30;0.50;;;;;;;;;;4918557;29;20449;-70
2023/08/03 14:07:39;;;;;;;1.43;0.60;;;;;;;;;;4917014;29;20484;-70
2023/08/03 14:10:08;;;;;;;2.30;0.50;;;;;;;;;;4918835;29;20445;-69
2023/08/03 14:12:36;;;;;;;1.97;0.67;;;;;;;;;;4914499;29;20499;-69
2023/08/03 14:15:03;;;;;;;3.80;0.80;;;;;;;;;;4916515;29;20836;-69
2023/08/03 14:17:30;;;;;;;1.60;0.50;;;;;;;;;;4916984;29;20471;-70
2023/08/03 14:19:57;;;;;;;1.50;0.60;;;;;;;;;;4917918;29;20496;-69
2023/08/03 14:22:24;;;;;;;1.73;0.70;;;;;;;;;;4916557;29;20463;-70
2023/08/03 14:24:51;;;;;;;1.20;0.40;;;;;;;;;;4918367;29;20460;-69
2023/08/03 14:27:20;;;;;;;1.77;0.60;;;;;;;;;;4918843;29;20460;-69
2023/08/03 14:29:47;;;;;;;1.30;0.63;;;;;;;;;;4917264;29;20441;-69
2023/08/03 14:32:14;;;;;;;1.20;0.50;;;;;;;;;;4913699;29;20460;-69
2023/08/03 14:34:41;;;;;;;1.20;0.50;;;;;;;;;;4917895;29;20437;-69
2023/08/03 14:37:08;;;;;;;1.73;0.50;;;;;;;;;;4914638;29;20567;-69
2023/08/03 14:39:35;;;;;;;1.20;0.40;;;;;;;;;;4918866;29;20451;-68
2023/08/03 14:42:03;;;;;;;3.43;1.47;;;;;;;;;;4917174;29;20440;-69
2023/08/03 14:44:31;;;;;;;2.07;0.70;;;;;;;;;;4919604;29;20432;-69
2023/08/03 14:46:58;;;;;;;1.20;0.50;;;;;;;;;;4917756;29;20479;-69
2023/08/03 14:49:25;;;;;;;1.60;0.70;;;;;;;;;;4916450;29;20836;-69
2023/08/03 14:51:53;;;;;;;2.83;0.60;;;;;;;;;;4914808;29;20826;-69
2023/08/03 14:54:20;;;;;;;1.10;0.47;;;;;;;;;;4915812;29;20503;-69
2023/08/03 14:56:47;;;;;;;1.20;0.40;;;;;;;;;;4914230;29;20524;-69
2023/08/03 14:59:14;;;;;;;1.87;0.60;;;;;;;;;;4917020;29;20444;-69